Saint Bonnet de Bellac- Haute Vienne - France
Donnes mto: lundi, 08/10/2012
Date Horaire Temp. E. Hum. E. P.atmo. Pluie Vent Direction Direction Ensoleilleme Solaire P. de rose Temp au vent Rafales
08/10/2012 00:00 16,4 C 93 % 1019,5 hPa 0,1 mm 0,0 km/h (0 Bft) S-SE 157 0 min 0 W/m 15,3 C 16,4 C 0,0 km/h (0 Bft)
08/10/2012 00:10 16,4 C 93 % 1019,2 hPa 0,0 mm 0,0 km/h (0 Bft) S-SE 157 0 min 0 W/m 15,3 C 16,4 C 0,0 km/h (0 Bft)
08/10/2012 00:20 16,3 C 93 % 1019,4 hPa 0,1 mm 0,0 km/h (0 Bft) S-SE 157 0 min 0 W/m 15,2 C 16,3 C 0,0 km/h (0 Bft)
08/10/2012 00:30 16,3 C 93 % 1019,4 hPa 0,0 mm 0,0 km/h (0 Bft) S-SE 157 0 min 0 W/m 15,2 C 16,3 C 0,0 km/h (0 Bft)
08/10/2012 00:40 16,2 C 93 % 1019,1 hPa 0,0 mm 0,0 km/h (0 Bft) S-SE 157 0 min 0 W/m 15,1 C 16,2 C 0,0 km/h (0 Bft)
08/10/2012 00:50 16,1 C 93 % 1019,3 hPa 0,0 mm 0,0 km/h (0 Bft) S-SE 157 0 min 0 W/m 15,0 C 16,1 C 0,0 km/h (0 Bft)
08/10/2012 01:00 16,0 C 94 % 1019,4 hPa 0,0 mm 0,0 km/h (0 Bft) S-SE 157 0 min 0 W/m 15,0 C 16,0 C 0,0 km/h (0 Bft)
08/10/2012 01:10 15,9 C 94 % 1019,1 hPa 0,0 mm 0,0 km/h (0 Bft) S-SE 157 0 min 0 W/m 14,9 C 15,9 C 0,0 km/h (0 Bft)
08/10/2012 01:20 15,9 C 94 % 1019,1 hPa 0,1 mm 1,1 km/h (1 Bft) S-SE 157 0 min 0 W/m 14,9 C 15,9 C 2,9 km/h (1 Bft)
08/10/2012 01:30 15,9 C 94 % 1019,1 hPa 0,0 mm 0,4 km/h (0 Bft) S-SE 157 0 min 0 W/m 14,9 C 15,9 C 3,2 km/h (1 Bft)
08/10/2012 01:40 15,9 C 94 % 1018,9 hPa 0,0 mm 2,2 km/h (1 Bft) S-SE 157 0 min 0 W/m 14,9 C 15,9 C 3,2 km/h (1 Bft)
08/10/2012 01:50 15,9 C 94 % 1018,7 hPa 0,0 mm 0,0 km/h (0 Bft) S-SE 157 0 min 0 W/m 14,9 C 15,9 C 0,0 km/h (0 Bft)
08/10/2012 02:00 15,9 C 94 % 1018,8 hPa 0,0 mm 0,0 km/h (0 Bft) S-SE 157 0 min 0 W/m 14,9 C 15,9 C 0,0 km/h (0 Bft)
08/10/2012 02:10 15,9 C 94 % 1018,9 hPa 0,0 mm 0,0 km/h (0 Bft) S-SE 157 0 min 0 W/m 14,9 C 15,9 C 0,0 km/h (0 Bft)
08/10/2012 02:20 15,9 C 94 % 1019,0 hPa 0,0 mm 0,0 km/h (0 Bft) S-SE 157 0 min 0 W/m 14,9 C 15,9 C 0,0 km/h (0 Bft)
08/10/2012 02:30 15,9 C 94 % 1019,0 hPa 0,0 mm 0,0 km/h (0 Bft) S-SE 157 0 min 0 W/m 14,9 C 15,9 C 0,0 km/h (0 Bft)
08/10/2012 02:40 15,9 C 94 % 1019,2 hPa 0,0 mm 0,0 km/h (0 Bft) S-SE 157 0 min 0 W/m 14,9 C 15,9 C 0,0 km/h (0 Bft)
08/10/2012 02:50 15,9 C 94 % 1019,0 hPa 0,0 mm 0,0 km/h (0 Bft) S-SE 157 0 min 0 W/m 14,9 C 15,9 C 0,0 km/h (0 Bft)
08/10/2012 03:02 15,9 C 94 % 1018,9 hPa 0,0 mm 0,0 km/h (0 Bft) S-SE 157 0 min 0 W/m 14,9 C 15,9 C 0,0 km/h (0 Bft)
08/10/2012 03:10 16,0 C 94 % 1018,9 hPa 0,0 mm 0,0 km/h (0 Bft) S-SE 157 0 min 0 W/m 15,0 C 16,0 C 0,0 km/h (0 Bft)
08/10/2012 03:20 16,1 C 95 % 1018,7 hPa 0,0 mm 0,0 km/h (0 Bft) S-SE 157 0 min 0 W/m 15,3 C 16,1 C 0,0 km/h (0 Bft)
08/10/2012 03:30 16,1 C 94 % 1018,8 hPa 0,0 mm 0,0 km/h (0 Bft) S-SE 157 0 min 0 W/m 15,1 C 16,1 C 0,0 km/h (0 Bft)
08/10/2012 03:40 16,1 C 94 % 1018,5 hPa 0,0 mm 0,0 km/h (0 Bft) S-SE 157 0 min 0 W/m 15,1 C 16,1 C 0,0 km/h (0 Bft)
08/10/2012 03:50 16,1 C 94 % 1018,3 hPa 0,0 mm 0,0 km/h (0 Bft) S-SE 157 0 min 0 W/m 15,1 C 16,1 C 0,0 km/h (0 Bft)
08/10/2012 04:00 16,1 C 95 % 1018,3 hPa 0,0 mm 0,0 km/h (0 Bft) S-SE 157 0 min 0 W/m 15,3 C 16,1 C 0,0 km/h (0 Bft)
08/10/2012 04:10 16,2 C 95 % 1018,1 hPa 0,0 mm 0,0 km/h (0 Bft) S-SE 157 0 min 0 W/m 15,4 C 16,2 C 3,2 km/h (1 Bft)
08/10/2012 04:20 16,2 C 95 % 1018,1 hPa 0,0 mm 0,0 km/h (0 Bft) S 180 0 min 0 W/m 15,4 C 16,2 C 0,0 km/h (0 Bft)
08/10/2012 04:30 16,3 C 95 % 1018,2 hPa 0,0 mm 0,0 km/h (0 Bft) S-SO 202 0 min 0 W/m 15,5 C 16,3 C 0,0 km/h (0 Bft)
08/10/2012 04:40 16,4 C 95 % 1018,2 hPa 0,0 mm 3,6 km/h (1 Bft) SO 225 0 min 0 W/m 15,6 C 16,4 C 3,6 km/h (1 Bft)
08/10/2012 04:50 16,6 C 95 % 1017,9 hPa 0,1 mm 2,2 km/h (1 Bft) S 180 0 min 0 W/m 15,8 C 16,6 C 6,5 km/h (2 Bft)
08/10/2012 05:00 16,8 C 95 % 1017,8 hPa 0,0 mm 5,0 km/h (1 Bft) SO 225 0 min 0 W/m 16,0 C 16,8 C 7,6 km/h (2 Bft)
08/10/2012 05:10 16,8 C 95 % 1017,6 hPa 0,0 mm 1,4 km/h (1 Bft) S-SO 202 0 min 0 W/m 16,0 C 16,8 C 3,2 km/h (1 Bft)
08/10/2012 05:20 16,8 C 95 % 1017,7 hPa 0,0 mm 0,7 km/h (0 Bft) O-SO 247 0 min 0 W/m 16,0 C 16,8 C 6,1 km/h (2 Bft)
08/10/2012 05:30 16,8 C 95 % 1017,7 hPa 0,0 mm 1,1 km/h (1 Bft) S-SO 202 0 min 0 W/m 16,0 C 16,8 C 4,3 km/h (1 Bft)
08/10/2012 05:40 16,8 C 95 % 1017,7 hPa 0,0 mm 0,7 km/h (0 Bft) SO 225 0 min 0 W/m 16,0 C 16,8 C 0,7 km/h (0 Bft)
08/10/2012 05:50 16,8 C 95 % 1017,6 hPa 0,0 mm 0,0 km/h (0 Bft) SO 225 0 min 0 W/m 16,0 C 16,8 C 0,0 km/h (0 Bft)
08/10/2012 06:00 16,9 C 95 % 1017,6 hPa 0,0 mm 1,4 km/h (1 Bft) SO 225 0 min 0 W/m 16,1 C 16,9 C 4,0 km/h (1 Bft)
08/10/2012 06:10 16,9 C 95 % 1017,5 hPa 0,0 mm 2,2 km/h (1 Bft) SO 225 0 min 0 W/m 16,1 C 16,9 C 4,3 km/h (1 Bft)
08/10/2012 06:20 16,9 C 95 % 1017,5 hPa 0,0 mm 3,2 km/h (1 Bft) S-SO 202 0 min 0 W/m 16,1 C 16,9 C 6,8 km/h (2 Bft)
08/10/2012 06:30 16,9 C 95 % 1017,5 hPa 0,0 mm 1,4 km/h (1 Bft) S-SO 202 0 min 0 W/m 16,1 C 16,9 C 4,3 km/h (1 Bft)
08/10/2012 06:40 16,9 C 95 % 1017,4 hPa 0,0 mm 1,4 km/h (1 Bft) O-SO 247 0 min 0 W/m 16,1 C 16,9 C 4,0 km/h (1 Bft)
08/10/2012 06:50 16,9 C 95 % 1017,4 hPa 0,0 mm 3,2 km/h (1 Bft) S 180 0 min 0 W/m 16,1 C 16,9 C 3,6 km/h (1 Bft)
08/10/2012 07:00 16,9 C 95 % 1017,3 hPa 0,0 mm 0,0 km/h (0 Bft) SO 225 0 min 0 W/m 16,1 C 16,9 C 0,0 km/h (0 Bft)
08/10/2012 07:10 16,9 C 95 % 1017,3 hPa 0,0 mm 0,0 km/h (0 Bft) S-SO 202 0 min 0 W/m 16,1 C 16,9 C 0,0 km/h (0 Bft)
08/10/2012 07:20 16,9 C 95 % 1017,2 hPa 0,0 mm 0,0 km/h (0 Bft) S-SO 202 0 min 0 W/m 16,1 C 16,9 C 0,0 km/h (0 Bft)
08/10/2012 07:30 16,9 C 95 % 1017,1 hPa 0,0 mm 0,0 km/h (0 Bft) S-SO 202 0 min 0 W/m 16,1 C 16,9 C 2,9 km/h (1 Bft)
08/10/2012 07:40 16,9 C 95 % 1017,2 hPa 0,0 mm 0,4 km/h (0 Bft) SO 225 0 min 0 W/m 16,1 C 16,9 C 3,2 km/h (1 Bft)
08/10/2012 07:50 16,9 C 95 % 1017,1 hPa 0,0 mm 0,0 km/h (0 Bft) SO 225 0 min 0 W/m 16,1 C 16,9 C 2,9 km/h (1 Bft)
08/10/2012 08:00 16,9 C 95 % 1017,0 hPa 0,0 mm 0,0 km/h (0 Bft) S-SO 202 0 min 0 W/m 16,1 C 16,9 C 0,0 km/h (0 Bft)
08/10/2012 08:10 16,9 C 95 % 1017,1 hPa 0,0 mm 0,4 km/h (0 Bft) S-SO 202 0 min 0 W/m 16,1 C 16,9 C 4,3 km/h (1 Bft)
08/10/2012 08:20 16,9 C 95 % 1017,2 hPa 0,0 mm 0,4 km/h (0 Bft) SO 225 0 min 0 W/m 16,1 C 16,9 C 3,6 km/h (1 Bft)
08/10/2012 08:30 16,9 C 95 % 1017,1 hPa 0,0 mm 0,0 km/h (0 Bft) SO 225 0 min 0 W/m 16,1 C 16,9 C 0,0 km/h (0 Bft)
08/10/2012 08:40 16,9 C 95 % 1017,1 hPa 0,0 mm 0,0 km/h (0 Bft) SO 225 0 min 0 W/m 16,1 C 16,9 C 0,0 km/h (0 Bft)
08/10/2012 08:50 16,9 C 95 % 1017,3 hPa 0,0 mm 1,1 km/h (1 Bft) SO 225 0 min 0 W/m 16,1 C 16,9 C 3,6 km/h (1 Bft)
08/10/2012 09:00 16,9 C 95 % 1017,2 hPa 0,0 mm 1,4 km/h (1 Bft) SO 225 0 min 0 W/m 16,1 C 16,9 C 3,6 km/h (1 Bft)
08/10/2012 09:10 17,1 C 95 % 1017,1 hPa 0,0 mm 0,0 km/h (0 Bft) SO 225 0 min 0 W/m 16,3 C 17,1 C 0,0 km/h (0 Bft)
08/10/2012 09:20 17,1 C 95 % 1017,3 hPa 0,0 mm 1,4 km/h (1 Bft) S-SO 202 0 min 0 W/m 16,3 C 17,1 C 3,6 km/h (1 Bft)
08/10/2012 09:30 17,1 C 95 % 1017,2 hPa 0,0 mm 1,1 km/h (1 Bft) SO 225 0 min 0 W/m 16,3 C 17,1 C 2,9 km/h (1 Bft)
08/10/2012 09:40 17,1 C 96 % 1017,3 hPa 0,0 mm 0,7 km/h (0 Bft) SO 225 0 min 0 W/m 16,5 C 17,1 C 0,7 km/h (0 Bft)
08/10/2012 09:50 17,2 C 95 % 1017,3 hPa 0,0 mm 2,2 km/h (1 Bft) SO 225 0 min 0 W/m 16,4 C 17,2 C 3,6 km/h (1 Bft)
08/10/2012 10:00 17,3 C 95 % 1017,4 hPa 0,0 mm 0,0 km/h (0 Bft) SO 225 0 min 0 W/m 16,5 C 17,3 C 0,0 km/h (0 Bft)
08/10/2012 10:10 17,4 C 95 % 1017,5 hPa 0,0 mm 0,0 km/h (0 Bft) S-SO 202 0 min 0 W/m 16,6 C 17,4 C 0,0 km/h (0 Bft)
08/10/2012 10:20 17,5 C 95 % 1017,5 hPa 0,0 mm 1,4 km/h (1 Bft) S-SO 202 0 min 0 W/m 16,7 C 17,5 C 4,0 km/h (1 Bft)
08/10/2012 10:30 17,5 C 95 % 1017,7 hPa 0,0 mm 0,0 km/h (0 Bft) S-SO 202 0 min 0 W/m 16,7 C 17,5 C 3,6 km/h (1 Bft)
08/10/2012 10:40 17,6 C 96 % 1017,9 hPa 0,0 mm 0,0 km/h (0 Bft) SO 225 0 min 0 W/m 17,0 C 17,6 C 0,0 km/h (0 Bft)
08/10/2012 10:50 17,8 C 96 % 1017,9 hPa 0,0 mm 0,0 km/h (0 Bft) SO 225 0 min 0 W/m 17,2 C 17,8 C 0,0 km/h (0 Bft)
08/10/2012 11:00 17,9 C 95 % 1017,9 hPa 0,0 mm 0,4 km/h (0 Bft) O-SO 247 0 min 0 W/m 17,1 C 17,9 C 0,4 km/h (0 Bft)
08/10/2012 11:10 17,9 C 96 % 1017,8 hPa 0,1 mm 0,0 km/h (0 Bft) O-SO 247 0 min 0 W/m 17,3 C 17,9 C 0,0 km/h (0 Bft)
08/10/2012 11:20 17,9 C 95 % 1017,8 hPa 0,0 mm 0,0 km/h (0 Bft) O-SO 247 0 min 0 W/m 17,1 C 17,9 C 0,0 km/h (0 Bft)
08/10/2012 11:30 18,1 C 95 % 1017,6 hPa 0,2 mm 0,0 km/h (0 Bft) O-SO 247 0 min 0 W/m 17,3 C 18,1 C 0,0 km/h (0 Bft)
08/10/2012 11:40 18,0 C 95 % 1017,5 hPa 0,0 mm 0,0 km/h (0 Bft) O-SO 247 0 min 0 W/m 17,2 C 18,0 C 0,0 km/h (0 Bft)
08/10/2012 11:50 18,1 C 95 % 1017,4 hPa 0,1 mm 0,0 km/h (0 Bft) O-SO 247 0 min 0 W/m 17,3 C 18,1 C 0,0 km/h (0 Bft)
08/10/2012 12:00 18,3 C 95 % 1017,3 hPa 0,0 mm 0,4 km/h (0 Bft) O-SO 247 0 min 0 W/m 17,5 C 18,3 C 3,2 km/h (1 Bft)
08/10/2012 12:10 18,3 C 95 % 1017,3 hPa 0,1 mm 0,0 km/h (0 Bft) S-SO 202 0 min 0 W/m 17,5 C 18,3 C 0,0 km/h (0 Bft)
08/10/2012 12:20 18,4 C 95 % 1017,3 hPa 0,0 mm 0,0 km/h (0 Bft) S-SO 202 0 min 0 W/m 17,6 C 18,4 C 0,0 km/h (0 Bft)
08/10/2012 12:30 18,6 C 95 % 1017,5 hPa 0,0 mm 0,0 km/h (0 Bft) S-SO 202 0 min 0 W/m 17,8 C 18,6 C 0,0 km/h (0 Bft)
08/10/2012 12:40 18,9 C 95 % 1017,4 hPa 0,0 mm 3,2 km/h (1 Bft) S-SO 202 0 min 0 W/m 18,1 C 18,9 C 4,3 km/h (1 Bft)
08/10/2012 12:50 19,1 C 95 % 1017,3 hPa 0,0 mm 1,1 km/h (1 Bft) S-SO 202 0 min 0 W/m 18,3 C 19,1 C 3,2 km/h (1 Bft)
08/10/2012 13:00 19,0 C 95 % 1017,2 hPa 0,0 mm 0,4 km/h (0 Bft) S-SE 157 0 min 0 W/m 18,2 C 19,0 C 4,0 km/h (1 Bft)
08/10/2012 13:10 19,1 C 95 % 1017,1 hPa 0,0 mm 1,4 km/h (1 Bft) S-SO 202 0 min 0 W/m 18,3 C 19,1 C 4,3 km/h (1 Bft)
08/10/2012 13:20 19,2 C 95 % 1016,7 hPa 0,0 mm 2,2 km/h (1 Bft) S-SE 157 0 min 0 W/m 18,4 C 19,2 C 4,3 km/h (1 Bft)
08/10/2012 13:30 19,3 C 95 % 1016,3 hPa 0,0 mm 0,7 km/h (0 Bft) E-SE 112 0 min 0 W/m 18,5 C 19,3 C 0,7 km/h (0 Bft)
08/10/2012 13:40 19,3 C 94 % 1016,3 hPa 0,0 mm 0,4 km/h (0 Bft) S 180 0 min 0 W/m 18,3 C 19,3 C 3,2 km/h (1 Bft)
08/10/2012 13:50 19,3 C 94 % 1015,9 hPa 0,0 mm 0,4 km/h (0 Bft) S-SE 157 0 min 0 W/m 18,3 C 19,3 C 3,2 km/h (1 Bft)
08/10/2012 14:00 19,4 C 94 % 1015,6 hPa 0,0 mm 0,0 km/h (0 Bft) SE 135 0 min 0 W/m 18,4 C 19,4 C 0,0 km/h (0 Bft)
08/10/2012 14:10 19,5 C 94 % 1015,8 hPa 0,0 mm 1,4 km/h (1 Bft) S 180 0 min 0 W/m 18,5 C 19,5 C 1,4 km/h (1 Bft)
08/10/2012 14:20 19,8 C 94 % 1015,9 hPa 0,0 mm 3,6 km/h (1 Bft) S-SO 202 0 min 0 W/m 18,8 C 19,8 C 4,3 km/h (1 Bft)
08/10/2012 14:30 20,0 C 93 % 1015,5 hPa 0,0 mm 0,0 km/h (0 Bft) S 180 0 min 0 W/m 18,8 C 20,0 C 3,2 km/h (1 Bft)
08/10/2012 14:40 20,1 C 91 % 1015,7 hPa 0,0 mm 3,2 km/h (1 Bft) S 180 0 min 0 W/m 18,6 C 20,1 C 7,6 km/h (2 Bft)
08/10/2012 14:50 20,1 C 90 % 1015,6 hPa 0,0 mm 3,6 km/h (1 Bft) S 180 0 min 0 W/m 18,4 C 20,1 C 4,0 km/h (1 Bft)
08/10/2012 15:00 20,1 C 90 % 1015,3 hPa 0,0 mm 0,0 km/h (0 Bft) S 180 0 min 0 W/m 18,4 C 20,1 C 0,0 km/h (0 Bft)
08/10/2012 15:10 20,6 C 90 % 1015,5 hPa 0,0 mm 1,8 km/h (1 Bft) S-SO 202 0 min 0 W/m 18,9 C 20,6 C 6,5 km/h (2 Bft)
08/10/2012 15:20 21,2 C 89 % 1015,4 hPa 0,0 mm 5,8 km/h (2 Bft) S 180 0 min 0 W/m 19,3 C 21,2 C 9,0 km/h (2 Bft)
08/10/2012 15:30 21,4 C 86 % 1015,2 hPa 0,0 mm 1,8 km/h (1 Bft) S-SO 202 0 min 0 W/m 19,0 C 21,4 C 3,6 km/h (1 Bft)
08/10/2012 15:40 21,5 C 85 % 1015,2 hPa 0,0 mm 4,3 km/h (1 Bft) S-SO 202 0 min 0 W/m 18,9 C 21,5 C 4,3 km/h (1 Bft)
08/10/2012 15:50 21,4 C 84 % 1015,2 hPa 0,0 mm 0,0 km/h (0 Bft) S-SO 202 0 min 0 W/m 18,6 C 21,4 C 0,0 km/h (0 Bft)
08/10/2012 16:00 21,4 C 85 % 1014,9 hPa 0,0 mm 1,4 km/h (1 Bft) S-SO 202 0 min 0 W/m 18,8 C 21,4 C 4,3 km/h (1 Bft)
08/10/2012 16:10 21,4 C 84 % 1014,8 hPa 0,0 mm 1,4 km/h (1 Bft) S 180 0 min 0 W/m 18,6 C 21,4 C 2,9 km/h (1 Bft)
08/10/2012 16:20 21,3 C 84 % 1014,8 hPa 0,0 mm 1,4 km/h (1 Bft) S 180 0 min 0 W/m 18,5 C 21,3 C 4,3 km/h (1 Bft)
08/10/2012 16:30 21,3 C 84 % 1014,6 hPa 0,0 mm 2,2 km/h (1 Bft) S 180 0 min 0 W/m 18,5 C 21,3 C 4,3 km/h (1 Bft)
08/10/2012 16:40 21,3 C 84 % 1014,7 hPa 0,0 mm 1,4 km/h (1 Bft) S 180 0 min 0 W/m 18,5 C 21,3 C 4,3 km/h (1 Bft)
08/10/2012 16:50 21,2 C 84 % 1014,7 hPa 0,0 mm 0,4 km/h (0 Bft) S 180 0 min 0 W/m 18,4 C 21,2 C 3,6 km/h (1 Bft)
08/10/2012 17:00 21,1 C 84 % 1014,6 hPa 0,0 mm 0,0 km/h (0 Bft) S 180 0 min 0 W/m 18,3 C 21,1 C 0,0 km/h (0 Bft)
08/10/2012 17:10 20,9 C 85 % 1014,7 hPa 0,0 mm 0,0 km/h (0 Bft) S 180 0 min 0 W/m 18,3 C 20,9 C 0,0 km/h (0 Bft)
08/10/2012 17:20 20,8 C 85 % 1014,9 hPa 0,0 mm 0,0 km/h (0 Bft) S 180 0 min 0 W/m 18,2 C 20,8 C 0,0 km/h (0 Bft)
08/10/2012 17:30 20,6 C 86 % 1014,9 hPa 0,1 mm 1,8 km/h (1 Bft) S 180 0 min 0 W/m 18,2 C 20,6 C 4,0 km/h (1 Bft)
08/10/2012 17:40 20,3 C 86 % 1014,8 hPa 0,3 mm 0,7 km/h (0 Bft) S 180 0 min 0 W/m 17,9 C 20,3 C 3,2 km/h (1 Bft)
08/10/2012 17:50 20,2 C 87 % 1014,8 hPa 0,0 mm 0,0 km/h (0 Bft) S 180 0 min 0 W/m 18,0 C 20,2 C 0,0 km/h (0 Bft)
08/10/2012 18:00 20,1 C 88 % 1014,7 hPa 0,0 mm 0,0 km/h (0 Bft) S 180 0 min 0 W/m 18,0 C 20,1 C 0,0 km/h (0 Bft)
08/10/2012 18:10 19,8 C 88 % 1014,5 hPa 0,0 mm 1,4 km/h (1 Bft) S 180 0 min 0 W/m 17,8 C 19,8 C 3,6 km/h (1 Bft)
08/10/2012 18:20 19,7 C 89 % 1014,3 hPa 0,0 mm 1,4 km/h (1 Bft) S-SE 157 0 min 0 W/m 17,8 C 19,7 C 4,0 km/h (1 Bft)
08/10/2012 18:30 19,6 C 90 % 1014,5 hPa 0,0 mm 0,0 km/h (0 Bft) S-SE 157 0 min 0 W/m 17,9 C 19,6 C 0,0 km/h (0 Bft)
08/10/2012 18:40 19,5 C 90 % 1014,4 hPa 0,0 mm 1,1 km/h (1 Bft) S-SE 157 0 min 0 W/m 17,8 C 19,5 C 3,2 km/h (1 Bft)
08/10/2012 18:50 19,4 C 90 % 1014,4 hPa 0,0 mm 0,0 km/h (0 Bft) SE 135 0 min 0 W/m 17,7 C 19,4 C 0,0 km/h (0 Bft)
08/10/2012 19:00 19,3 C 91 % 1014,7 hPa 0,3 mm 0,0 km/h (0 Bft) S 180 0 min 0 W/m 17,8 C 19,3 C 0,0 km/h (0 Bft)
08/10/2012 19:10 19,2 C 91 % 1014,4 hPa 0,2 mm 0,0 km/h (0 Bft) S 180 0 min 0 W/m 17,7 C 19,2 C 0,0 km/h (0 Bft)
08/10/2012 19:20 19,1 C 91 % 1014,5 hPa 0,0 mm 0,7 km/h (0 Bft) S 180 0 min 0 W/m 17,6 C 19,1 C 3,2 km/h (1 Bft)
08/10/2012 19:30 18,9 C 91 % 1014,4 hPa 0,0 mm 0,4 km/h (0 Bft) S 180 0 min 0 W/m 17,4 C 18,9 C 0,4 km/h (0 Bft)
08/10/2012 19:40 18,8 C 91 % 1014,2 hPa 0,0 mm 1,4 km/h (1 Bft) S 180 0 min 0 W/m 17,3 C 18,8 C 3,2 km/h (1 Bft)
08/10/2012 19:50 18,8 C 92 % 1014,5 hPa 0,0 mm 0,0 km/h (0 Bft) O-SO 247 0 min 0 W/m 17,5 C 18,8 C 0,0 km/h (0 Bft)
08/10/2012 20:00 18,7 C 92 % 1014,3 hPa 0,0 mm 2,9 km/h (1 Bft) SO 225 0 min 0 W/m 17,4 C 18,7 C 3,6 km/h (1 Bft)
08/10/2012 20:10 18,6 C 92 % 1014,2 hPa 0,0 mm 4,0 km/h (1 Bft) S-SO 202 0 min 0 W/m 17,3 C 18,6 C 6,5 km/h (2 Bft)
08/10/2012 20:20 18,6 C 92 % 1014,3 hPa 0,0 mm 3,6 km/h (1 Bft) SO 225 0 min 0 W/m 17,3 C 18,6 C 4,7 km/h (1 Bft)
08/10/2012 20:30 18,7 C 92 % 1014,3 hPa 0,0 mm 7,6 km/h (2 Bft) SO 225 0 min 0 W/m 17,4 C 18,7 C 15,1 km/h (3 Bft)
08/10/2012 20:40 18,8 C 92 % 1014,3 hPa 0,0 mm 6,1 km/h (2 Bft) SO 225 0 min 0 W/m 17,5 C 18,8 C 6,5 km/h (2 Bft)
08/10/2012 20:50 18,8 C 92 % 1014,1 hPa 0,0 mm 6,8 km/h (2 Bft) S-SO 202 0 min 0 W/m 17,5 C 18,8 C 6,8 km/h (2 Bft)
08/10/2012 21:00 18,6 C 92 % 1014,0 hPa 0,0 mm 5,0 km/h (1 Bft) O-SO 247 0 min 0 W/m 17,3 C 18,6 C 7,6 km/h (2 Bft)
08/10/2012 21:10 18,6 C 92 % 1014,2 hPa 0,0 mm 2,9 km/h (1 Bft) SO 225 0 min 0 W/m 17,3 C 18,6 C 3,6 km/h (1 Bft)
08/10/2012 21:20 18,6 C 93 % 1014,3 hPa 0,0 mm 4,3 km/h (1 Bft) S-SO 202 0 min 0 W/m 17,4 C 18,6 C 6,5 km/h (2 Bft)
08/10/2012 21:30 18,6 C 93 % 1014,4 hPa 0,0 mm 0,7 km/h (0 Bft) O-SO 247 0 min 0 W/m 17,4 C 18,6 C 3,2 km/h (1 Bft)
08/10/2012 21:40 18,6 C 93 % 1014,4 hPa 0,2 mm 1,1 km/h (1 Bft) SO 225 0 min 0 W/m 17,4 C 18,6 C 4,3 km/h (1 Bft)
08/10/2012 21:50 18,6 C 93 % 1014,4 hPa 0,0 mm 0,7 km/h (0 Bft) O-SO 247 0 min 0 W/m 17,4 C 18,6 C 6,1 km/h (2 Bft)
08/10/2012 22:00 18,4 C 93 % 1014,5 hPa 0,0 mm 4,0 km/h (1 Bft) SO 225 0 min 0 W/m 17,2 C 18,4 C 7,6 km/h (2 Bft)
08/10/2012 22:10 18,3 C 93 % 1014,6 hPa 0,0 mm 2,5 km/h (1 Bft) O-SO 247 0 min 0 W/m 17,1 C 18,3 C 4,0 km/h (1 Bft)
08/10/2012 22:20 18,2 C 92 % 1014,7 hPa 0,0 mm 5,4 km/h (2 Bft) O-SO 247 0 min 0 W/m 16,9 C 18,2 C 5,4 km/h (2 Bft)
08/10/2012 22:30 18,1 C 92 % 1014,7 hPa 0,0 mm 4,0 km/h (1 Bft) O-SO 247 0 min 0 W/m 16,8 C 18,1 C 4,0 km/h (1 Bft)
08/10/2012 22:40 18,0 C 92 % 1014,6 hPa 0,0 mm 4,0 km/h (1 Bft) O-SO 247 0 min 0 W/m 16,7 C 18,0 C 8,3 km/h (2 Bft)
08/10/2012 22:50 17,9 C 92 % 1014,7 hPa 0,0 mm 7,6 km/h (2 Bft) SO 225 0 min 0 W/m 16,6 C 17,9 C 12,6 km/h (3 Bft)
08/10/2012 23:00 17,8 C 92 % 1014,8 hPa 0,0 mm 8,3 km/h (2 Bft) SO 225 0 min 0 W/m 16,5 C 17,8 C 10,8 km/h (2 Bft)
08/10/2012 23:10 17,7 C 92 % 1014,9 hPa 0,0 mm 2,5 km/h (1 Bft) S-SO 202 0 min 0 W/m 16,4 C 17,7 C 4,0 km/h (1 Bft)
08/10/2012 23:20 17,6 C 92 % 1014,9 hPa 0,1 mm 7,9 km/h (2 Bft) SO 225 0 min 0 W/m 16,3 C 17,6 C 10,4 km/h (2 Bft)
08/10/2012 23:30 17,4 C 93 % 1014,9 hPa 0,0 mm 4,7 km/h (1 Bft) SO 225 0 min 0 W/m 16,3 C 17,4 C 7,9 km/h (2 Bft)
08/10/2012 23:40 17,4 C 93 % 1014,9 hPa 0,0 mm 4,7 km/h (1 Bft) S-SO 202 0 min 0 W/m 16,3 C 17,4 C 13,0 km/h (3 Bft)
08/10/2012 23:50 17,3 C 93 % 1014,8 hPa 0,0 mm 4,3 km/h (1 Bft) O-SO 247 0 min 0 W/m 16,2 C 17,3 C 9,0 km/h (2 Bft)
_ Min-Heure 03:02 17:00 21:00 - 19:50 - - - - 03:02 03:02 19:50
Minimum _ 15,9 C 84 % 1014,0 hPa - 0,0 km/h (0 Bft) - - - - 14,9 C 15,9 C 0,0 km/h (0 Bft)
_ Max-Heure 15:40 11:10 00:00 19:00 23:00 - - 23:50 23:50 15:20 15:40 20:30
Maximum _ 21,5 C 96 % 1019,5 hPa 0,3 mm 8,3 km/h
SO (2 Bft)
- - 0 min 0 W/m 19,3 C 21,5 C 15,1 km/h
SO (3 Bft)
Moyenne _ 18,0 C 93 % 1016,6 hPa #2,2 mm 1,4 km/h (1 Bft) S-SE - #0 min. 0 W/m 16,8 C 18,0 C 2,9 km/h (1 Bft)
Saint Bonnet de Bellac- Haute Vienne - France